Time;durP1;ratioP1;P1;durP2;ratioP2;P2;SDS_P1;SDS_P2;PMS_P1;PMS_P2;Temp;Humidity;BMP_temperature;BMP_pressure;BME280_temperature;BME280_humidity;BME280_pressure;Samples;Min_cycle;Max_cycle;Signal;HPM_P1;HPM_P2
2023/10/02 00:00:40;;;;;;;0.15;0.15;;;;;;;13.28;69.76;98235.22;5068774;28;20086;-75
2023/10/02 00:03:10;;;;;;;0.32;0.32;;;;;;;13.32;69.65;98244.53;5067804;28;20040;-75
2023/10/02 00:05:50;;;;;;;0.20;0.20;;;;;;;13.32;69.66;98241.84;5068085;28;20605;-75
2023/10/02 00:08:31;;;;;;;0.17;0.17;;;;;;;13.29;69.66;98244.94;5068678;28;20040;-76
2023/10/02 00:11:35;;;;;;;0.22;0.22;;;;;;;13.33;69.48;98240.81;5066725;28;20393;-74
2023/10/02 00:14:18;;;;;;;0.32;0.32;;;;;;;13.27;69.71;98242.44;5054824;28;20041;-73
2023/10/02 00:16:59;;;;;;;0.20;0.20;;;;;;;13.09;70.36;98242.88;5068862;28;20045;-73
2023/10/02 00:19:35;;;;;;;0.22;0.22;;;;;;;13.08;70.40;98237.75;5070674;28;20504;-75
2023/10/02 00:22:06;;;;;;;0.13;0.13;;;;;;;13.01;70.49;98237.66;5058988;28;20041;-74
2023/10/02 00:24:37;;;;;;;0.13;0.13;;;;;;;13.02;70.65;98235.81;5060219;28;20049;-71
2023/10/02 00:27:06;;;;;;;0.10;0.10;;;;;;;13.01;70.76;98236.84;5060257;28;20060;-75
2023/10/02 00:29:34;;;;;;;0.22;0.22;;;;;;;13.26;69.53;98226.56;5067749;28;20074;-73
2023/10/02 00:32:10;;;;;;;0.08;0.08;;;;;;;12.89;70.93;98228.50;5071787;28;20044;-72
2023/10/02 00:34:41;;;;;;;0.20;0.20;;;;;;;12.91;70.47;98221.09;5067167;28;20068;-73
2023/10/02 00:37:13;;;;;;;0.30;0.30;;;;;;;12.86;70.85;98221.69;5067609;28;20029;-76
2023/10/02 00:39:47;;;;;;;0.70;0.70;;;;;;;12.87;70.69;98226.00;5066027;28;20489;-73
2023/10/02 00:42:24;;;;;;;0.20;0.20;;;;;;;12.93;70.54;98223.59;5061347;28;20481;-73
2023/10/02 00:44:52;;;;;;;0.40;0.40;;;;;;;12.84;71.13;98222.91;5058292;28;20055;-73
2023/10/02 00:47:38;;;;;;;0.22;0.22;;;;;;;12.83;71.01;98222.06;5066139;28;20045;-74
2023/10/02 00:50:10;;;;;;;0.22;0.22;;;;;;;12.79;71.23;98220.78;5061007;28;20040;-73
2023/10/02 00:52:41;;;;;;;0.17;0.17;;;;;;;12.59;72.31;98211.75;5061326;28;20045;-74
2023/10/02 00:55:10;;;;;;;0.13;0.13;;;;;;;12.65;72.46;98208.31;5056722;28;20119;-72
2023/10/02 00:57:39;;;;;;;0.22;0.22;;;;;;;12.71;72.17;98214.75;5048602;28;20092;-73
2023/10/02 01:00:17;;;;;;;0.30;0.30;;;;;;;12.71;72.25;98209.41;5054096;28;20041;-72
2023/10/02 01:02:46;;;;;;;0.22;0.22;;;;;;;12.73;72.29;98210.88;5055796;28;20051;-72
2023/10/02 01:05:21;;;;;;;0.22;0.22;;;;;;;12.81;71.90;98213.41;5051997;28;20045;-76
2023/10/02 01:07:53;;;;;;;0.13;0.13;;;;;;;12.68;72.45;98212.44;5054414;28;20091;-73
2023/10/02 01:10:23;;;;;;;;;;;;;;;12.77;72.31;98217.47;5054610;28;20496;-72
2023/10/02 01:12:53;;;;;;;0.22;0.22;;;;;;;12.72;72.05;98219.91;5051330;28;19974;-73
2023/10/02 01:15:26;;;;;;;0.20;0.20;;;;;;;12.73;72.32;98224.25;5051536;28;20499;-72
2023/10/02 01:18:21;;;;;;;0.35;0.35;;;;;;;12.74;72.53;98228.59;5043933;28;20069;-72
2023/10/02 01:20:53;;;;;;;0.15;0.15;;;;;;;12.65;72.67;98226.25;5048877;28;20053;-72
2023/10/02 01:23:25;;;;;;;0.20;0.20;;;;;;;12.76;72.31;98226.56;5052140;28;20459;-73
2023/10/02 01:26:00;;;;;;;0.28;0.28;;;;;;;12.76;72.40;98228.41;5046575;28;20128;-73
2023/10/02 01:28:32;;;;;;;0.22;0.22;;;;;;;12.69;72.41;98225.66;5059380;28;20037;-73
2023/10/02 01:31:31;;;;;;;0.20;0.20;;;;;;;12.69;72.26;98222.13;5055241;28;20060;-74
2023/10/02 01:33:48;;;;;;;0.22;0.22;;;;;;;12.71;72.31;98222.78;5051551;28;20052;-74
2023/10/02 01:36:16;;;;;;;0.17;0.17;;;;;;;12.85;71.84;98230.75;5054925;28;20052;-74
2023/10/02 01:38:47;;;;;;;0.30;0.30;;;;;;;12.74;71.90;98225.91;5047080;28;20037;-74
2023/10/02 01:41:16;;;;;;;0.20;0.20;;;;;;;12.54;72.51;98227.59;5048113;28;20048;-74
2023/10/02 01:43:45;;;;;;;0.22;0.22;;;;;;;12.66;72.29;98226.06;5045633;28;20051;-72
2023/10/02 01:46:17;;;;;;;0.38;0.38;;;;;;;12.67;71.87;98224.19;5044214;28;20046;-73
2023/10/02 01:48:48;;;;;;;0.22;0.22;;;;;;;12.65;71.62;98215.53;5052037;28;20381;-73
2023/10/02 01:51:21;;;;;;;0.20;0.20;;;;;;;12.61;71.86;98223.09;5056139;28;20048;-74
2023/10/02 01:53:51;;;;;;;0.20;0.20;;;;;;;12.51;72.20;98222.59;5044367;28;20103;-76
2023/10/02 01:56:22;;;;;;;0.30;0.30;;;;;;;12.62;71.97;98215.91;5045103;28;20048;-73
2023/10/02 01:58:51;;;;;;;0.10;0.10;;;;;;;12.55;72.26;98223.06;5053426;28;20068;-75
2023/10/02 02:01:20;;;;;;;0.30;0.30;;;;;;;12.35;73.07;98222.88;5056340;28;20183;-74
2023/10/02 02:03:49;;;;;;;0.25;0.25;;;;;;;12.38;72.83;98215.25;5053024;28;20045;-73
2023/10/02 02:06:20;;;;;;;0.22;0.20;;;;;;;12.35;73.30;98217.50;5050222;28;20501;-73
2023/10/02 02:08:58;;;;;;;0.13;0.13;;;;;;;12.29;73.66;98215.56;5051605;28;20052;-72
2023/10/02 02:11:29;;;;;;;;;;;;;;;12.18;74.32;98218.75;5053179;28;20112;-71
2023/10/02 02:13:59;;;;;;;0.10;0.10;;;;;;;12.30;73.83;98219.91;5050613;28;19920;-72
2023/10/02 02:16:33;;;;;;;0.30;0.30;;;;;;;12.43;72.91;98215.53;5052165;28;20044;-71
2023/10/02 02:19:06;;;;;;;0.30;0.30;;;;;;;12.43;72.92;98217.38;5061028;28;20075;-72
2023/10/02 02:21:34;;;;;;;0.20;0.20;;;;;;;12.47;72.72;98214.13;5052496;28;20566;-73
2023/10/02 02:24:07;;;;;;;0.15;0.15;;;;;;;12.47;72.24;98214.13;5047084;28;20500;-73
2023/10/02 02:26:37;;;;;;;0.13;0.13;;;;;;;12.29;72.50;98212.91;5053679;28;20037;-72
2023/10/02 02:29:19;;;;;;;0.22;0.22;;;;;;;12.37;72.34;98210.09;5056846;28;20041;-74
2023/10/02 02:31:46;;;;;;;0.22;0.22;;;;;;;12.42;71.84;98219.22;5052626;28;20127;-73
2023/10/02 02:34:15;;;;;;;0.13;0.13;;;;;;;12.48;71.58;98221.13;5051701;28;20037;-74
2023/10/02 02:36:46;;;;;;;0.10;0.10;;;;;;;12.44;71.79;98211.84;5054958;28;20048;-74
2023/10/02 02:39:17;;;;;;;0.13;0.13;;;;;;;12.23;72.46;98221.69;5045881;28;20044;-73
2023/10/02 02:41:48;;;;;;;0.22;0.22;;;;;;;12.09;72.96;98210.84;5053495;28;20053;-74
2023/10/02 02:47:07;;;;;;;0.20;0.20;;;;;;;12.31;71.77;98217.06;5048387;28;20584;-74
2023/10/02 02:49:48;;;;;;;0.30;0.30;;;;;;;12.22;72.26;98212.00;5052601;28;20515;-74
2023/10/02 02:52:19;;;;;;;0.32;0.32;;;;;;;12.07;72.54;98210.19;5049547;28;20055;-77
2023/10/02 02:54:48;;;;;;;0.28;0.28;;;;;;;12.16;72.33;98210.06;5051452;28;20098;-75
2023/10/02 02:57:25;;;;;;;0.35;0.35;;;;;;;12.09;71.88;98208.16;5043263;28;20076;-76
2023/10/02 03:00:24;;;;;;;0.20;0.20;;;;;;;11.99;72.51;98207.63;5045883;28;20041;-74
2023/10/02 03:02:46;;;;;;;0.17;0.17;;;;;;;11.76;73.29;98209.63;5051440;28;20045;-74
2023/10/02 03:05:16;;;;;;;0.28;0.28;;;;;;;11.65;74.03;98204.72;5052317;28;20037;-76
2023/10/02 03:07:44;;;;;;;0.17;0.13;;;;;;;11.61;74.00;98198.09;5044118;28;20037;-73
2023/10/02 03:10:12;;;;;;;0.32;0.32;;;;;;;11.72;73.34;98205.66;5049365;28;20083;-71
2023/10/02 03:12:45;;;;;;;0.28;0.28;;;;;;;11.67;73.51;98202.69;5046677;28;20144;-73
2023/10/02 03:15:14;;;;;;;0.30;0.30;;;;;;;11.79;73.24;98197.72;5040753;28;20041;-73
2023/10/02 03:17:42;;;;;;;0.22;0.22;;;;;;;11.73;73.59;98199.28;5044234;28;20056;-73
2023/10/02 03:20:22;;;;;;;0.13;0.13;;;;;;;11.94;72.56;98201.22;5041370;28;20073;-72
2023/10/02 03:22:53;;;;;;;0.40;0.40;;;;;;;11.94;72.27;98198.53;5037233;28;20046;-73
2023/10/02 03:25:28;;;;;;;0.30;0.30;;;;;;;11.86;72.89;98195.94;5037274;28;20044;-74
2023/10/02 03:27:57;;;;;;;0.13;0.13;;;;;;;11.70;73.13;98189.78;5044736;28;20044;-74
2023/10/02 03:30:38;;;;;;;0.22;0.22;;;;;;;11.59;73.76;98190.25;5045883;28;20053;-75
2023/10/02 03:33:17;;;;;;;0.20;0.20;;;;;;;11.30;76.95;98188.44;5042851;28;20040;-73
2023/10/02 03:35:56;;;;;;;0.25;0.25;;;;;;;11.28;78.02;98193.13;5044993;28;20067;-75
2023/10/02 03:38:29;;;;;;;0.25;0.25;;;;;;;11.41;77.35;98192.50;5043769;28;20052;-74
2023/10/02 03:40:58;;;;;;;0.22;0.22;;;;;;;11.37;77.27;98185.84;5044355;28;20125;-73
2023/10/02 03:43:42;;;;;;;0.30;0.30;;;;;;;11.35;76.96;98179.84;5040591;28;20044;-74
2023/10/02 03:46:14;;;;;;;0.40;0.40;;;;;;;11.49;76.53;98180.88;5036931;28;20049;-74
2023/10/02 03:48:50;;;;;;;0.25;0.25;;;;;;;11.63;75.20;98186.19;5044088;28;20034;-75
2023/10/02 03:51:35;;;;;;;0.30;0.30;;;;;;;11.66;74.59;98185.81;5042168;28;20040;-73
2023/10/02 03:54:18;;;;;;;0.10;0.10;;;;;;;11.67;74.39;98182.13;5048879;28;20033;-76
2023/10/02 03:56:47;;;;;;;0.10;0.10;;;;;;;11.59;74.87;98184.91;5046298;28;20102;-73
2023/10/02 03:59:20;;;;;;;0.13;0.13;;;;;;;11.56;74.52;98179.94;5041169;28;20111;-71
2023/10/02 04:01:50;;;;;;;0.32;0.32;;;;;;;11.51;74.67;98173.50;5046492;28;20052;-73
2023/10/02 04:04:21;;;;;;;0.30;0.30;;;;;;;11.54;74.09;98175.78;5039600;28;20602;-74
2023/10/02 04:06:53;;;;;;;0.25;0.25;;;;;;;11.48;74.41;98171.19;5039706;28;20128;-73
2023/10/02 04:09:23;;;;;;;0.20;0.20;;;;;;;11.49;74.45;98178.19;5049962;28;20408;-72
2023/10/02 04:11:52;;;;;;;0.13;0.13;;;;;;;11.28;74.95;98182.44;5050212;28;20114;-72
2023/10/02 04:14:31;;;;;;;0.25;0.25;;;;;;;11.32;74.93;98177.53;5049774;28;20045;-72
2023/10/02 04:17:09;;;;;;;0.13;0.13;;;;;;;11.21;76.79;98186.03;5050698;28;20108;-74
2023/10/02 04:19:40;;;;;;;0.13;0.13;;;;;;;11.26;77.12;98179.13;5051360;28;20091;-73
2023/10/02 04:22:16;;;;;;;0.25;0.25;;;;;;;11.31;76.43;98176.75;5050909;28;20040;-73
2023/10/02 04:24:54;;;;;;;0.22;0.22;;;;;;;11.46;75.56;98183.91;5051022;28;20068;-74
2023/10/02 04:27:25;;;;;;;0.30;0.30;;;;;;;11.45;75.24;98171.53;5051389;28;20067;-76
2023/10/02 04:32:48;;;;;;;0.28;0.28;;;;;;;11.69;73.58;98179.28;5049539;28;20060;-75
2023/10/02 04:38:07;;;;;;;0.32;0.32;;;;;;;11.20;74.07;98179.03;5054398;28;20119;-73
2023/10/02 04:40:37;;;;;;;0.22;0.22;;;;;;;11.06;74.67;98187.84;5050044;28;20122;-73
2023/10/02 04:43:23;;;;;;;0.28;0.28;;;;;;;11.01;75.09;98188.41;5054475;28;20131;-74
2023/10/02 04:45:53;;;;;;;0.30;0.30;;;;;;;11.19;74.25;98188.06;5044110;28;20072;-74
2023/10/02 04:48:26;;;;;;;0.13;0.13;;;;;;;11.25;73.86;98184.66;5051355;28;20069;-75
2023/10/02 04:50:56;;;;;;;0.30;0.30;;;;;;;10.91;74.88;98188.66;5052248;28;20146;-73
2023/10/02 04:53:25;;;;;;;0.32;0.32;;;;;;;10.86;74.61;98185.72;5053830;28;20049;-76
2023/10/02 04:56:13;;;;;;;0.20;0.20;;;;;;;10.82;74.65;98180.91;5055426;28;20094;-75
2023/10/02 04:58:47;;;;;;;0.28;0.28;;;;;;;10.81;74.30;98173.91;5054796;28;20055;-75
2023/10/02 05:01:28;;;;;;;0.30;0.30;;;;;;;10.63;74.92;98174.25;5053960;28;20419;-75
2023/10/02 05:04:02;;;;;;;0.22;0.22;;;;;;;10.66;75.02;98176.56;5053941;28;20059;-74
2023/10/02 05:06:52;;;;;;;0.22;0.22;;;;;;;10.46;76.73;98173.56;5054275;28;20049;-74
2023/10/02 05:09:27;;;;;;;0.22;0.22;;;;;;;10.57;76.43;98177.66;5051608;28;20041;-73
2023/10/02 05:12:03;;;;;;;0.35;0.35;;;;;;;10.61;76.87;98174.44;5040543;28;20464;-76
2023/10/02 05:14:33;;;;;;;0.22;0.22;;;;;;;10.55;78.13;98185.84;5051551;28;20080;-75
2023/10/02 05:17:17;;;;;;;0.22;0.22;;;;;;;10.82;77.13;98180.91;5053223;28;20407;-75
2023/10/02 05:19:56;;;;;;;0.13;0.13;;;;;;;10.81;77.82;98190.75;5053625;28;20527;-74
2023/10/02 05:22:27;;;;;;;0.30;0.30;;;;;;;10.74;78.25;98187.16;5047598;28;20051;-73
2023/10/02 05:24:58;;;;;;;0.10;0.10;;;;;;;10.90;78.39;98184.31;5053440;28;20043;-74
2023/10/02 05:27:30;;;;;;;0.25;0.25;;;;;;;10.95;79.44;98192.63;5054070;28;20103;-75
2023/10/02 05:30:01;;;;;;;;;;;;;;;11.12;77.96;98193.28;5054616;28;20095;-74
2023/10/02 05:32:35;;;;;;;0.22;0.22;;;;;;;11.38;75.92;98195.53;5054051;28;20011;-74
2023/10/02 05:35:16;;;;;;;0.35;0.35;;;;;;;11.48;75.02;98184.53;5053661;28;20121;-75
2023/10/02 05:37:45;;;;;;;0.13;0.13;;;;;;;11.57;74.28;98189.59;5053512;28;20570;-75
2023/10/02 05:43:17;;;;;;;0.20;0.20;;;;;;;11.13;74.58;98188.78;5078170;28;20048;-72
2023/10/02 05:45:50;;;;;;;0.25;0.25;;;;;;;11.04;74.95;98188.03;5078590;28;20051;-73
2023/10/02 05:48:28;;;;;;;0.20;0.20;;;;;;;11.19;74.93;98193.41;5075545;28;20049;-76
2023/10/02 05:50:57;;;;;;;;;;;;;;;11.31;75.07;98187.44;5081766;28;20040;-72
2023/10/02 05:53:26;;;;;;;0.30;0.30;;;;;;;11.42;74.41;98187.97;5081851;28;19974;-73
2023/10/02 05:56:12;;;;;;;0.17;0.17;;;;;;;11.51;73.58;98193.03;5085180;28;20037;-73
2023/10/02 05:58:42;;;;;;;0.30;0.30;;;;;;;11.52;73.58;98192.03;5077589;28;20681;-73
2023/10/02 06:01:23;;;;;;;0.73;0.32;;;;;;;11.46;73.49;98184.72;5076097;28;20678;-73
2023/10/02 06:03:57;;;;;;;0.30;0.30;;;;;;;11.56;73.23;98187.13;5073083;28;20434;-75
2023/10/02 06:06:27;;;;;;;0.22;0.22;;;;;;;11.38;73.77;98183.00;5076649;28;20044;-74
2023/10/02 06:09:00;;;;;;;0.30;0.30;;;;;;;11.18;75.69;98192.56;5072771;28;20068;-73
2023/10/02 06:11:31;;;;;;;0.43;0.40;;;;;;;11.27;76.35;98194.13;5079217;28;20167;-74
2023/10/02 06:14:10;;;;;;;0.22;0.22;;;;;;;11.35;76.98;98188.69;5074244;28;20044;-74
2023/10/02 06:16:40;;;;;;;0.28;0.28;;;;;;;11.55;77.03;98201.50;5071620;28;20041;-74
2023/10/02 06:19:14;;;;;;;0.43;0.43;;;;;;;11.71;76.18;98195.97;5085584;28;20044;-74
2023/10/02 06:22:04;;;;;;;0.25;0.25;;;;;;;11.87;75.66;98197.59;5084712;28;20408;-73
2023/10/02 06:24:32;;;;;;;0.25;0.25;;;;;;;11.98;74.70;98195.28;5067099;28;20044;-73
2023/10/02 06:27:04;;;;;;;0.38;0.38;;;;;;;12.12;74.47;98194.41;5085603;28;20518;-73
2023/10/02 06:29:35;;;;;;;0.28;0.28;;;;;;;12.13;75.14;98200.59;5076076;28;20037;-73
2023/10/02 06:32:05;;;;;;;0.25;0.25;;;;;;;12.26;74.99;98200.72;5067226;28;20040;-75
2023/10/02 06:34:38;;;;;;;0.50;0.47;;;;;;;12.32;74.72;98191.94;5050906;28;20044;-73
2023/10/02 06:37:11;;;;;;;0.13;0.13;;;;;;;12.39;74.98;98198.19;5067452;28;20040;-74
2023/10/02 06:39:41;;;;;;;0.22;0.22;;;;;;;12.46;74.08;98195.56;5072258;28;20116;-73
2023/10/02 06:42:10;;;;;;;0.22;0.22;;;;;;;12.50;74.26;98197.66;5081097;28;20114;-73
2023/10/02 06:44:41;;;;;;;0.20;0.20;;;;;;;12.59;74.59;98194.84;5079344;28;20224;-75
2023/10/02 06:47:13;;;;;;;0.22;0.22;;;;;;;12.67;74.07;98192.88;5070431;28;20045;-73
2023/10/02 06:49:44;;;;;;;0.22;0.22;;;;;;;12.76;74.29;98194.41;5074617;28;20045;-73
2023/10/02 06:52:16;;;;;;;0.22;0.22;;;;;;;12.87;74.04;98196.53;5076033;28;20472;-73
2023/10/02 06:54:45;;;;;;;0.20;0.20;;;;;;;12.99;73.54;98185.28;5083257;28;20076;-74
2023/10/02 06:57:14;;;;;;;0.20;0.20;;;;;;;13.08;74.11;98187.63;5084485;28;20780;-72
2023/10/02 06:59:51;;;;;;;0.28;0.28;;;;;;;13.20;73.94;98179.91;5076499;28;20046;-74
2023/10/02 07:02:20;;;;;;;0.32;0.32;;;;;;;13.28;73.67;98184.31;5060546;28;20048;-73
2023/10/02 07:04:52;;;;;;;0.30;0.30;;;;;;;13.40;73.33;98196.09;5085153;28;20047;-72
2023/10/02 07:07:24;;;;;;;0.20;0.20;;;;;;;13.49;73.50;98195.78;5067100;28;21496;-75
2023/10/02 07:09:54;;;;;;;0.22;0.22;;;;;;;13.59;73.29;98192.72;5076806;28;20048;-73
2023/10/02 07:12:27;;;;;;;0.25;0.25;;;;;;;13.69;72.79;98187.81;5075507;28;20044;-73
2023/10/02 07:15:10;;;;;;;0.22;0.22;;;;;;;13.85;72.60;98198.19;5080721;28;20032;-75
2023/10/02 07:17:47;;;;;;;0.13;0.13;;;;;;;13.92;72.43;98196.34;5079570;28;20062;-73
2023/10/02 07:20:20;;;;;;;0.13;0.13;;;;;;;14.03;72.29;98202.16;5068414;28;20456;-74
2023/10/02 07:22:49;;;;;;;0.22;0.22;;;;;;;14.11;71.78;98199.31;5068442;28;20045;-73
2023/10/02 07:25:20;;;;;;;0.30;0.30;;;;;;;14.19;71.84;98193.78;5072607;28;20040;-74
2023/10/02 07:27:49;;;;;;;0.22;0.22;;;;;;;14.29;71.69;98197.72;5079133;28;20443;-75
2023/10/02 07:30:25;;;;;;;0.20;0.20;;;;;;;14.38;71.38;98192.16;5075595;28;20118;-73
2023/10/02 07:33:02;;;;;;;0.25;0.25;;;;;;;14.49;71.33;98200.47;5075743;28;20102;-72
2023/10/02 07:35:34;;;;;;;0.20;0.20;;;;;;;14.65;71.09;98202.75;5073777;28;20082;-74
2023/10/02 07:38:02;;;;;;;0.22;0.22;;;;;;;14.78;70.46;98193.88;5086630;28;20048;-73
2023/10/02 07:43:14;;;;;;;0.13;0.13;;;;;;;15.11;69.72;98190.34;5075003;28;20097;-74
2023/10/02 07:45:41;;;;;;;0.30;0.30;;;;;;;15.24;69.27;98199.25;5080251;28;20427;-73
2023/10/02 07:48:10;;;;;;;0.22;0.22;;;;;;;15.37;69.13;98193.81;5079974;28;20123;-74
2023/10/02 07:50:41;;;;;;;0.30;0.30;;;;;;;15.45;68.36;98195.47;5071857;28;20072;-73
2023/10/02 07:53:09;;;;;;;0.25;0.25;;;;;;;15.52;68.54;98196.28;5072148;28;20048;-73
2023/10/02 07:55:42;;;;;;;0.15;0.15;;;;;;;15.57;68.32;98193.81;5071248;28;20044;-75
2023/10/02 07:58:13;;;;;;;0.22;0.22;;;;;;;15.64;nan;98186.53;5054101;28;20516;-75
2023/10/02 08:00:41;;;;;;;0.22;0.22;;;;;;;15.74;68.22;98183.41;5064090;28;20033;-73
2023/10/02 08:05:56;;;;;;;0.32;0.32;;;;;;;15.96;68.07;98179.38;5066619;28;20124;-73
2023/10/02 08:08:26;;;;;;;0.03;0.03;;;;;;;16.03;67.88;98185.53;5069739;28;20051;-73
2023/10/02 08:10:53;;;;;;;0.30;0.30;;;;;;;16.10;67.67;98182.81;5071873;28;20120;-73
2023/10/02 08:13:32;;;;;;;0.22;0.22;;;;;;;16.17;67.45;98180.94;5080331;28;20045;-72
2023/10/02 08:16:07;;;;;;;0.20;0.20;;;;;;;16.25;67.61;98188.75;5072689;28;20032;-75
2023/10/02 08:18:55;;;;;;;0.38;0.38;;;;;;;16.33;67.31;98188.50;5081951;28;20183;-73
2023/10/02 08:21:34;;;;;;;0.22;0.22;;;;;;;16.41;66.78;98190.09;5070535;28;20040;-72
2023/10/02 08:24:04;;;;;;;0.25;0.25;;;;;;;16.51;66.87;98188.56;5092526;28;20148;-73
2023/10/02 08:26:38;;;;;;;0.35;0.35;;;;;;;16.56;66.21;98182.53;5083614;28;20052;-74
2023/10/02 08:29:08;;;;;;;0.13;0.13;;;;;;;16.63;66.03;98185.22;5073766;28;20047;-73
2023/10/02 08:31:42;;;;;;;0.22;0.22;;;;;;;16.73;65.68;98188.25;5080437;28;20056;-73
2023/10/02 08:34:12;;;;;;;0.32;0.32;;;;;;;16.78;65.28;98185.72;5078226;28;20037;-75
2023/10/02 08:36:44;;;;;;;0.22;0.22;;;;;;;16.85;65.40;98183.78;5080215;28;20055;-76
2023/10/02 08:39:12;;;;;;;0.20;0.20;;;;;;;16.94;65.39;98187.88;5082344;28;20119;-76
2023/10/02 08:41:45;;;;;;;0.30;0.30;;;;;;;17.03;64.18;98194.63;5085590;28;20398;-73
2023/10/02 08:44:13;;;;;;;0.32;0.32;;;;;;;17.14;64.74;98177.72;5081945;28;20570;-76
2023/10/02 08:46:43;;;;;;;0.20;0.20;;;;;;;17.30;63.79;98176.34;5077050;28;20055;-75
2023/10/02 08:49:12;;;;;;;0.32;0.32;;;;;;;17.41;63.49;98177.47;5084580;28;20115;-73
2023/10/02 08:51:48;;;;;;;0.30;0.30;;;;;;;17.49;63.16;98174.47;5082778;28;20543;-73
2023/10/02 08:54:18;;;;;;;0.13;0.13;;;;;;;17.59;63.02;98174.78;5076852;28;20145;-75
2023/10/02 08:56:48;;;;;;;0.30;0.30;;;;;;;17.71;62.69;98175.72;5078137;28;20099;-72
2023/10/02 08:59:18;;;;;;;0.32;0.32;;;;;;;17.79;62.71;98171.88;5085144;28;20480;-74
2023/10/02 09:01:48;;;;;;;0.20;0.20;;;;;;;17.89;61.98;98169.47;5078404;28;20055;-76
2023/10/02 09:04:23;;;;;;;0.22;0.22;;;;;;;17.93;62.80;98166.09;5078926;28;20043;-74
2023/10/02 09:06:53;;;;;;;0.30;0.30;;;;;;;18.02;61.48;98160.38;5066495;28;20086;-76
2023/10/02 09:09:26;;;;;;;0.30;0.30;;;;;;;18.12;61.88;98158.78;5069358;28;20053;-76
2023/10/02 09:11:57;;;;;;;0.20;0.20;;;;;;;18.21;61.70;98164.69;5085566;28;20089;-74
2023/10/02 09:17:20;;;;;;;0.20;0.20;;;;;;;18.42;60.97;98163.34;5149853;27;20365;-76
2023/10/02 09:20:00;;;;;;;0.17;0.17;;;;;;;18.47;60.95;98158.91;5150596;27;20070;-75
2023/10/02 09:22:28;;;;;;;0.10;0.10;;;;;;;18.55;61.05;98152.31;5143393;27;20037;-77
2023/10/02 09:25:09;;;;;;;0.20;0.20;;;;;;;18.66;60.16;98156.97;5150077;27;20054;-77
2023/10/02 09:27:41;;;;;;;0.10;0.10;;;;;;;18.79;60.55;98155.94;5150436;27;20110;-77
2023/10/02 09:30:16;;;;;;;0.10;0.10;;;;;;;18.90;60.14;98155.09;5150841;27;20075;-74
2023/10/02 09:32:50;;;;;;;0.30;0.30;;;;;;;19.02;60.09;98153.22;5150251;27;20070;-75
2023/10/02 09:35:32;;;;;;;0.10;0.10;;;;;;;19.12;59.42;98141.81;5144489;27;20490;-75
2023/10/02 09:38:23;;;;;;;0.20;0.20;;;;;;;19.22;59.02;98136.63;5144547;27;20730;-74
2023/10/02 09:40:59;;;;;;;0.10;0.10;;;;;;;19.30;59.47;98131.72;5149962;27;20045;-73
2023/10/02 09:43:30;;;;;;;0.08;0.08;;;;;;;19.40;58.91;98140.06;5145841;27;20043;-73
2023/10/02 09:46:05;;;;;;;0.20;0.20;;;;;;;19.53;58.68;98141.69;5150343;27;20058;-74
2023/10/02 09:48:53;;;;;;;0.10;0.10;;;;;;;19.65;57.67;98122.72;5150811;27;20055;-73
2023/10/02 09:51:29;;;;;;;0.10;0.10;;;;;;;19.77;56.79;98124.34;5141276;27;20062;-73
2023/10/02 09:54:08;;;;;;;0.20;0.20;;;;;;;19.91;56.69;98133.00;5149417;27;20122;-73
2023/10/02 09:56:51;;;;;;;0.20;0.20;;;;;;;20.07;56.67;98129.53;5149506;27;20092;-73
2023/10/02 09:59:22;;;;;;;0.10;0.10;;;;;;;20.20;55.74;98124.88;5149427;27;20115;-74
2023/10/02 10:02:49;;;;;;;0.10;0.10;;;;;;;20.31;54.25;98124.81;5135331;27;20039;-74
2023/10/02 10:10:52;;;;;;;0.10;0.10;;;;;;;20.60;52.91;98120.19;5146489;27;20096;-74
2023/10/02 10:13:32;;;;;;;0.17;0.17;;;;;;;20.69;52.30;98115.19;5148858;27;20122;-75
2023/10/02 10:16:38;;;;;;;0.13;0.13;;;;;;;20.80;52.07;98123.25;5148666;27;20050;-75
2023/10/02 10:19:26;;;;;;;0.10;0.10;;;;;;;20.95;52.82;98117.25;5149077;27;20470;-77
2023/10/02 10:22:00;;;;;;;0.10;0.10;;;;;;;21.01;51.56;98116.22;5144870;27;20383;-74
2023/10/02 10:25:22;;;;;;;0.10;0.10;;;;;;;21.10;50.11;98108.47;5142506;27;20050;-74
2023/10/02 10:28:04;;;;;;;0.20;0.20;;;;;;;21.39;49.04;98104.56;5135485;27;20035;-74
2023/10/02 10:30:42;;;;;;;0.10;0.10;;;;;;;21.53;47.21;98108.56;5135100;27;20084;-77
2023/10/02 10:33:34;;;;;;;0.10;0.10;;;;;;;21.73;46.04;98104.47;5134946;27;20039;-76
2023/10/02 10:36:09;;;;;;;0.20;0.20;;;;;;;21.84;45.25;98106.22;5135092;27;20043;-74
2023/10/02 10:38:41;;;;;;;0.10;0.10;;;;;;;21.90;45.98;98105.22;5142988;27;20350;-75
2023/10/02 10:41:14;;;;;;;0.10;0.10;;;;;;;22.04;45.27;98106.50;5142326;27;20100;-75
2023/10/02 10:43:55;;;;;;;0.10;0.10;;;;;;;22.20;45.32;98104.78;5142228;27;20094;-74
2023/10/02 10:46:27;;;;;;;0.20;0.20;;;;;;;22.32;44.70;98098.06;5133421;27;20130;-75
2023/10/02 10:48:59;;;;;;;0.05;0.05;;;;;;;22.34;45.28;98101.34;5132082;27;20039;-74
2023/10/02 10:51:33;;;;;;;0.10;0.10;;;;;;;22.43;45.45;98095.44;5134578;27;20047;-73
2023/10/02 10:54:13;;;;;;;0.10;0.10;;;;;;;22.55;44.34;98096.09;5142256;27;20091;-77
2023/10/02 10:56:58;;;;;;;0.20;0.20;;;;;;;22.69;44.17;98089.97;5127881;27;20486;-75
2023/10/02 10:59:32;;;;;;;0.20;0.20;;;;;;;22.82;44.28;98098.81;5126599;27;20043;-73
2023/10/02 11:02:13;;;;;;;0.13;0.13;;;;;;;22.90;44.03;98099.16;5134735;27;20043;-75
2023/10/02 11:04:47;;;;;;;0.20;0.20;;;;;;;22.97;44.39;98093.47;5134626;27;20043;-75
2023/10/02 11:07:23;;;;;;;0.10;0.10;;;;;;;23.10;44.50;98087.56;5134372;27;20039;-75
2023/10/02 11:12:54;;;;;;;0.20;0.20;;;;;;;23.57;43.52;98087.56;5122704;27;20047;-75
2023/10/02 11:18:19;;;;;;;0.13;0.13;;;;;;;24.26;41.86;98084.53;5120875;27;20058;-74
2023/10/02 11:20:51;;;;;;;0.10;0.10;;;;;;;24.32;41.98;98072.53;5134334;27;20043;-75
2023/10/02 11:23:37;;;;;;;0.10;0.10;;;;;;;24.62;41.26;98069.00;5133617;27;20121;-75
2023/10/02 11:26:11;;;;;;;0.17;0.10;;;;;;;24.87;40.45;98068.16;5133516;27;20045;-75
2023/10/02 11:28:40;;;;;;;0.10;0.10;;;;;;;24.95;40.13;98075.00;5128119;27;20043;-75
2023/10/02 11:31:29;;;;;;;0.20;0.20;;;;;;;25.15;39.82;98064.84;5133579;27;20137;-74
2023/10/02 11:34:01;;;;;;;0.20;0.20;;;;;;;25.39;39.08;98062.34;5117699;27;20035;-75
2023/10/02 11:36:52;;;;;;;0.40;0.40;;;;;;;25.48;39.19;98057.94;5128455;27;20494;-75
2023/10/02 11:39:26;;;;;;;0.20;0.20;;;;;;;25.57;37.96;98048.03;5132195;27;20118;-75
2023/10/02 11:41:55;;;;;;;0.20;0.20;;;;;;;25.85;36.19;98051.25;5131812;27;20070;-76
2023/10/02 11:44:24;;;;;;;0.20;0.20;;;;;;;25.86;35.12;98053.66;5133599;27;20114;-75
2023/10/02 11:46:54;;;;;;;0.20;0.20;;;;;;;25.61;35.62;98042.88;5127405;27;20510;-75
2023/10/02 11:49:22;;;;;;;0.10;0.10;;;;;;;25.69;34.97;98044.19;5133703;27;20039;-74
2023/10/02 11:51:50;;;;;;;0.20;0.20;;;;;;;25.81;34.98;98040.03;5133560;27;20098;-76
2023/10/02 11:54:17;;;;;;;0.30;0.30;;;;;;;26.00;34.69;98034.72;5133212;27;20050;-75
2023/10/02 11:56:46;;;;;;;0.20;0.20;;;;;;;26.15;34.06;98031.91;5133261;27;20031;-74
2023/10/02 11:59:15;;;;;;;0.30;0.30;;;;;;;26.36;34.79;98029.84;5131859;27;20096;-75
2023/10/02 12:01:45;;;;;;;0.20;0.20;;;;;;;26.20;31.99;98031.03;5133052;27;20088;-75
2023/10/02 12:04:13;;;;;;;0.20;0.20;;;;;;;26.29;31.87;98024.69;5133111;27;20145;-75
2023/10/02 12:06:41;;;;;;;0.20;0.20;;;;;;;26.08;31.97;98019.59;5133389;27;20047;-76
2023/10/02 12:09:17;;;;;;;0.28;0.28;;;;;;;26.40;31.78;98025.41;5133289;27;20394;-75
2023/10/02 12:11:45;;;;;;;0.20;0.20;;;;;;;26.37;31.81;98027.94;5132978;27;20031;-74
2023/10/02 12:14:13;;;;;;;0.20;0.20;;;;;;;26.55;31.80;98019.84;5132796;27;20046;-73
2023/10/02 12:16:43;;;;;;;0.22;0.22;;;;;;;26.87;31.52;98019.25;5132735;27;20093;-75
2023/10/02 12:19:11;;;;;;;0.13;0.13;;;;;;;26.82;30.22;98016.56;5132786;27;20047;-75
2023/10/02 12:21:39;;;;;;;0.20;0.20;;;;;;;26.89;30.50;98013.50;5132985;27;20050;-75
2023/10/02 12:24:17;;;;;;;0.20;0.20;;;;;;;26.54;30.95;98014.63;5133839;27;20039;-76
2023/10/02 12:26:46;;;;;;;0.30;0.30;;;;;;;26.74;30.74;98010.88;5132858;27;20031;-74
2023/10/02 12:29:15;;;;;;;0.10;0.10;;;;;;;26.89;31.74;98008.78;5132651;27;20057;-76
2023/10/02 12:31:45;;;;;;;0.20;0.20;;;;;;;27.03;30.75;98000.75;5119558;27;20043;-75
2023/10/02 12:34:13;;;;;;;0.10;0.10;;;;;;;27.48;30.50;97995.81;5128882;27;20483;-75
2023/10/02 12:36:41;;;;;;;0.10;0.10;;;;;;;27.32;29.93;98001.50;5126133;27;20071;-76